Decoded Metar for KAKH (GASTONIA in NC, USA) (IATA:AKH) | Meteo·Mobile Aviation Weather
aviador You're here:

KAKH Decoded Metar

GASTONIA in NC, USA
Report Time2018-11-19 09:54:00
UTC Time2018-11-19 10:03:40
Flight Rules mvfr MVFR
WindCalm
Visibility6437 m
Phenomena:Mist
Clouds:N/A
Expected CloudBase > 800 ft AGL from Temp-Dew spread
CeilingNone
Temp06°C (ISA -7)
Dew Point04°C (87% RH)
AAT4.7°C
QNH1021 hPa
Density Alt-253 ft
Elevation797 ft
Report Wrong Elevation
Raw Report
METAR KAKH 190954Z AUTO 00000KT 4SM BR CLR 06/04 A3016 RMK AO2 SLP213
T00560044=

Extra information for KAKH:More info

Metar Taf Metar & Taf Last 4 Metars F.Rules Stats Wind Profile Meteogram Temp Stats Airport Information Weather charts Add Link Nearby VenuesMetar ALERT Operation Metar Decoded Social comments

AIRNAV info for KAKH